Ana Sayfa
METAR-TAF:

METAR-TAF

Havaalanları :

Belmar / Farmingdale, New Jersey, Amerika Birleşik Devletleri

Enlem: 40-11N, Boylam: 074-08W, yükseklik: 48 m

Güncel hava durumu gözlemi

Rapor saat 08:56 UTC de 10 dakika önce yapıldı.
Sakin rüzgar
Sıcaklık 20°C
Nem 100%
Basınç 1015 hPa
Görüş mesafesi: 6.4 km
300 ft yükseklikte çok bulutlu
Pus

METAR: KBLM 180856Z AUTO 00000KT 4SM BR OVC003 20/20 A2996 RMK AO2 SLP146 T02000200 50000

Saat: 05:06 (09:06 UTC)


TAF: eksik

4.000'den fazla havaalanı için hava durumu gözlemleri ve tahminleri (METAR ve TAF raporları).

Kullanılabilir istasyonlar harita üzerinde sarı ve kırmızı noktalarla gösterilir.

İstasyonun adını görmek için fareyi noktanın üzerinde gezdirin.

Sonrasında hava gözlem ve tahminlerini görmek için tıklayın.

Haritayı değiştirmek için: yaklaştırmak için siyah artı işaretli yeşil düğmeye ve uzaklaştırmak için de eksi işaretli düğmeye hızla tıklayın; bitişik haritalar için yeşil okları kullanın.


METAR-TAF: